Time;durP1;ratioP1;P1;durP2;ratioP2;P2;SDS_P1;SDS_P2;PMS_P1;PMS_P2;Temp;Humidity;BMP_temperature;BMP_pressure;BME280_temperature;BME280_humidity;BME280_pressure;Samples;Min_cycle;Max_cycle;Signal;HPM_P1;HPM_P2
2023/01/25 00:01:01;;;;;;;15.98;9.80;;;5.30;65.80;;;0.07;98.39;96824.03;4989586;28;20025;-53
2023/01/25 00:03:29;;;;;;;17.05;9.52;;;5.30;65.80;;;0.12;98.49;96822.50;4988158;28;20410;-51
2023/01/25 00:06:00;;;;;;;18.20;9.90;;;5.30;65.80;;;0.18;98.23;96815.78;4989239;28;20021;-51
2023/01/25 00:08:26;;;;;;;19.13;10.02;;;5.30;65.90;;;0.17;98.34;96814.16;4988359;28;20060;-52
2023/01/25 00:10:52;;;;;;;18.75;10.00;;;5.30;65.90;;;0.08;98.53;96809.94;5007819;28;20472;-56
2023/01/25 00:13:25;;;;;;;17.52;10.75;;;5.30;66.00;;;0.06;98.33;96807.47;4963609;28;20045;-55
2023/01/25 00:15:51;;;;;;;15.07;9.65;;;5.30;65.90;;;0.10;98.58;96813.22;4999868;28;20022;-55
2023/01/25 00:18:17;;;;;;;20.90;10.75;;;5.30;65.90;;;0.09;97.89;96803.69;4991750;28;20022;-54
2023/01/25 00:20:43;;;;;;;18.25;9.85;;;5.30;65.90;;;0.05;98.36;96797.97;5001971;28;20651;-53
2023/01/25 00:23:12;;;;;;;16.75;9.88;;;5.30;65.90;;;0.10;98.01;96808.78;4986427;28;20133;-56
2023/01/25 00:25:38;;;;;;;17.67;10.43;;;5.30;65.90;;;0.13;98.20;96815.50;4988497;28;20026;-52
2023/01/25 00:28:16;;;;;;;20.23;10.15;;;5.30;65.90;;;0.07;98.93;96808.31;4990701;28;20033;-56
2023/01/25 00:30:42;;;;;;;18.48;10.43;;;5.30;65.90;;;0.11;98.46;96806.97;5004004;28;20104;-57
2023/01/25 00:33:16;;;;;;;19.02;10.10;;;5.20;65.90;;;0.06;98.08;96809.28;4989267;28;20105;-55
2023/01/25 00:35:48;;;;;;;18.90;10.30;;;5.20;65.90;;;0.06;98.51;96804.84;4989662;28;20399;-55
2023/01/25 00:38:34;;;;;;;16.60;10.15;;;5.20;65.90;;;0.05;97.85;96802.41;4972554;28;20113;-57
2023/01/25 00:41:00;;;;;;;17.73;9.88;;;5.20;65.90;;;-0.03;97.80;96800.63;4991393;28;20032;-54
2023/01/25 00:43:29;;;;;;;20.10;10.75;;;5.20;65.90;;;-0.01;98.16;96796.03;4989847;28;20029;-56
2023/01/25 00:46:01;;;;;;;22.85;11.38;;;5.20;65.90;;;0.03;97.63;96792.06;4984825;28;20028;-57
2023/01/25 00:48:27;;;;;;;19.27;10.88;;;5.20;65.90;;;0.02;97.65;96784.41;4988224;28;20030;-53
2023/01/25 00:50:53;;;;;;;18.77;10.48;;;5.20;65.90;;;0.11;97.43;96780.78;5002484;28;20037;-57
2023/01/25 00:53:19;;;;;;;17.40;9.88;;;5.20;65.90;;;0.09;97.76;96780.94;4999572;28;20033;-57
2023/01/25 00:55:52;;;;;;;17.38;10.00;;;5.20;65.90;;;0.10;97.47;96773.91;5002794;28;20052;-54
2023/01/25 00:58:18;;;;;;;17.58;9.90;;;5.20;65.90;;;0.03;97.46;96772.94;4990526;28;20097;-54
2023/01/25 01:00:44;;;;;;;19.83;11.13;;;5.20;65.90;;;0.03;97.69;96767.69;5007414;28;20111;-56
2023/01/25 01:03:10;;;;;;;20.23;10.25;;;5.20;65.90;;;0.09;98.18;96762.59;4986753;28;20025;-55
2023/01/25 01:05:36;;;;;;;18.13;10.07;;;5.20;65.90;;;0.08;97.84;96763.56;4992803;28;20029;-57
2023/01/25 01:08:08;;;;;;;16.83;9.52;;;5.20;65.90;;;0.01;98.00;96767.06;4978907;28;20120;-54
2023/01/25 01:10:35;;;;;;;17.07;10.47;;;5.20;65.90;;;0.01;98.50;96782.78;4968349;28;20034;-55
2023/01/25 01:13:03;;;;;;;19.92;10.35;;;5.20;65.90;;;0.08;98.11;96784.53;4966657;28;20037;-54
2023/01/25 01:15:36;;;;;;;16.77;10.25;;;5.20;65.90;;;0.05;98.31;96784.88;4961299;28;20026;-56
2023/01/25 01:18:03;;;;;;;18.75;10.75;;;5.20;65.90;;;0.10;98.36;96781.75;4967624;28;20491;-53
2023/01/25 01:20:29;;;;;;;19.00;11.23;;;5.20;65.90;;;0.01;97.92;96780.97;4991412;28;20021;-55
2023/01/25 01:22:55;;;;;;;18.38;11.18;;;5.20;65.90;;;-0.01;98.17;96781.13;4990319;28;20021;-52
2023/01/25 01:25:24;;;;;;;18.55;10.68;;;5.20;65.90;;;0.08;97.86;96775.88;4961786;28;20373;-55
2023/01/25 01:27:50;;;;;;;17.60;10.98;;;5.20;65.90;;;0.09;97.69;96773.06;4962577;28;20089;-53
2023/01/25 01:30:22;;;;;;;19.40;11.57;;;5.20;65.90;;;0.08;97.85;96786.34;4974658;28;20427;-54
2023/01/25 01:32:50;;;;;;;20.10;10.93;;;5.20;65.90;;;0.13;98.25;96786.66;4982124;28;20032;-51
2023/01/25 01:35:19;;;;;;;17.92;10.85;;;5.20;65.90;;;0.10;97.98;96784.38;4974990;28;20056;-54
2023/01/25 01:37:45;;;;;;;18.27;10.90;;;5.20;65.90;;;-0.01;98.01;96783.75;4946014;28;20457;-53
2023/01/25 01:40:15;;;;;;;21.27;11.55;;;5.20;65.90;;;-0.01;98.14;96785.56;4982519;28;20030;-57
2023/01/25 01:43:05;;;;;;;17.88;10.55;;;5.20;65.90;;;-0.04;98.37;96791.13;4986240;28;20426;-55
2023/01/25 01:45:46;;;;;;;19.58;11.20;;;5.10;65.80;;;-0.02;98.58;96786.53;4947037;28;20094;-52
2023/01/25 01:48:37;;;;;;;19.60;11.43;;;5.10;65.80;;;0.01;98.34;96794.06;4974596;28;20040;-53
2023/01/25 01:52:12;;;;;;;19.13;11.38;;;5.10;65.90;;;0.05;98.50;96779.63;4987959;28;20416;-52
2023/01/25 01:55:12;;;;;;;20.90;11.98;;;5.20;65.90;;;0.05;98.45;96773.59;4948700;28;20046;-54
2023/01/25 01:57:52;;;;;;;20.08;11.60;;;5.10;66.00;;;0.03;98.80;96783.41;4970455;28;20022;-53
2023/01/25 02:00:37;;;;;;;19.33;11.45;;;5.10;66.00;;;0.03;98.55;96773.75;4967720;28;20052;-52
2023/01/25 02:03:03;;;;;;;19.88;11.60;;;5.10;66.10;;;0.06;98.29;96775.22;4954472;28;20032;-55
2023/01/25 02:06:35;;;;;;;17.95;11.43;;;5.10;66.00;;;0.09;97.72;96767.00;4973298;28;20050;-56
2023/01/25 02:09:07;;;;;;;19.30;11.18;;;5.10;65.90;;;0.07;97.86;96774.25;4979477;23;20061;-51
2023/01/25 02:11:34;;;;;;;17.67;10.70;;;5.10;66.00;;;-0.07;97.78;96773.13;4974387;28;20033;-52
2023/01/25 02:14:07;;;;;;;20.23;11.13;;;5.10;65.90;;;-0.07;98.72;96775.75;4974328;28;20434;-51
2023/01/25 02:16:33;;;;;;;;;;;5.10;65.90;;;-0.05;98.75;96764.13;4973449;28;20021;-52
2023/01/25 02:19:28;;;;;;;18.38;10.75;;;5.10;65.80;;;-0.06;98.69;96765.13;5005914;28;20325;-51
2023/01/25 02:21:59;;;;;;;19.75;10.90;;;5.10;66.00;;;-0.01;98.61;96768.03;4996239;28;20031;-55
2023/01/25 02:24:33;;;;;;;18.02;10.48;;;5.10;66.00;;;-0.01;98.86;96767.22;4983968;28;20053;-52
2023/01/25 02:27:00;;;;;;;20.52;11.52;;;5.10;66.10;;;0.05;98.83;96770.97;4971423;28;20032;-52
2023/01/25 02:29:29;;;;;;;20.10;11.85;;;5.10;66.00;;;0.04;98.17;96759.66;4966620;28;20037;-53
2023/01/25 02:32:02;;;;;;;22.35;11.10;;;5.10;66.00;;;0.08;98.49;96775.88;4993042;28;20526;-53
2023/01/25 02:34:28;;;;;;;19.38;10.93;;;5.10;66.00;;;-0.01;98.69;96767.22;4974745;28;20123;-52
2023/01/25 02:36:54;;;;;;;20.20;12.77;;;5.10;66.00;;;0.07;98.90;96761.16;4981049;28;20104;-52
2023/01/25 02:39:25;;;;;;;22.38;12.38;;;5.10;66.00;;;0.07;98.71;96761.97;4992089;28;20025;-55
2023/01/25 02:41:51;;;;;;;22.55;12.10;;;5.20;66.10;;;0.08;98.60;96752.28;4986779;28;20056;-52
2023/01/25 02:44:31;;;;;;;20.85;11.77;;;5.10;66.10;;;0.05;98.48;96755.25;4983935;28;20031;-52
2023/01/25 02:46:57;;;;;;;22.52;12.52;;;5.20;66.10;;;0.04;98.83;96759.66;4990102;28;20029;-51
2023/01/25 02:49:24;;;;;;;22.13;11.40;;;5.10;66.00;;;0.05;98.60;96755.25;4993360;28;20120;-52
2023/01/25 02:51:56;;;;;;;21.33;12.02;;;5.20;66.10;;;0.07;98.69;96746.22;4982609;28;20112;-53
2023/01/25 02:54:27;;;;;;;21.88;12.00;;;5.10;66.00;;;0.10;98.97;96751.13;4994705;28;20372;-51
2023/01/25 02:56:53;;;;;;;22.85;13.00;;;5.10;66.00;;;0.08;98.87;96753.09;4967396;28;20745;-55
2023/01/25 02:59:20;;;;;;;18.77;11.43;;;5.20;66.10;;;0.09;98.72;96746.06;4990744;28;20372;-51
2023/01/25 03:01:58;;;;;;;22.30;12.25;;;5.20;66.10;;;0.11;98.97;96742.28;4973624;28;20013;-52
2023/01/25 03:04:27;;;;;;;21.35;11.65;;;5.20;66.10;;;0.04;98.74;96741.34;4995418;28;20049;-52
2023/01/25 03:06:59;;;;;;;23.42;12.23;;;5.20;66.10;;;0.05;98.82;96740.34;4993108;28;20018;-52
2023/01/25 03:09:25;;;;;;;18.33;11.57;;;5.20;66.10;;;0.09;99.01;96746.06;4985024;28;20046;-53
2023/01/25 03:11:50;;;;;;;19.38;11.10;;;5.10;66.10;;;0.04;98.56;96743.16;4985544;28;20349;-53
2023/01/25 03:14:19;;;;;;;23.52;12.57;;;5.10;66.10;;;-0.04;98.57;96731.69;4992228;28;20028;-55
2023/01/25 03:16:51;;;;;;;22.25;12.75;;;5.20;66.10;;;0.05;98.86;96731.66;5009117;28;20052;-55
2023/01/25 03:19:20;;;;;;;20.20;11.05;;;5.10;66.10;;;0.05;98.49;96726.44;4961498;28;20116;-53
2023/01/25 03:21:46;;;;;;;21.35;11.48;;;5.20;66.20;;;-0.02;98.88;96728.91;4999109;28;20025;-51
2023/01/25 03:24:14;;;;;;;19.88;11.70;;;5.10;66.10;;;-0.02;98.71;96728.91;4977141;28;20037;-53
2023/01/25 03:29:26;;;;;;;21.52;12.07;;;5.20;66.20;;;-0.04;99.11;96736.94;4990853;28;20427;-57
2023/01/25 03:32:02;;;;;;;23.10;12.60;;;5.10;66.10;;;-0.02;99.18;96728.91;4991323;28;20049;-52
2023/01/25 03:34:28;;;;;;;22.55;11.75;;;5.10;66.20;;;-0.10;99.33;96724.50;4989091;28;20160;-54
2023/01/25 03:36:54;;;;;;;20.75;11.55;;;5.10;66.20;;;-0.07;99.33;96729.41;4997559;28;20025;-56
2023/01/25 03:39:19;;;;;;;25.95;11.82;;;5.10;66.20;;;-0.11;99.87;96719.44;5003986;28;20100;-53
2023/01/25 03:41:48;;;;;;;22.25;11.95;;;5.10;66.30;;;-0.10;99.65;96708.78;4992327;28;20029;-54
2023/01/25 03:44:20;;;;;;;24.55;12.43;;;5.10;66.20;;;-0.08;99.62;96711.25;5009777;28;20033;-56
2023/01/25 03:46:48;;;;;;;24.30;12.27;;;5.10;66.30;;;-0.10;99.78;96705.34;5000127;28;20025;-52
2023/01/25 03:49:17;;;;;;;21.67;11.70;;;5.10;66.30;;;-0.20;100.00;96700.31;4985433;28;20025;-55
2023/01/25 03:51:46;;;;;;;22.45;12.60;;;5.00;66.20;;;-0.13;100.00;96701.28;4986014;28;20017;-54
2023/01/25 03:54:12;;;;;;;23.70;12.68;;;5.00;66.30;;;-0.13;100.00;96698.66;4972926;28;20468;-56
2023/01/25 03:56:38;;;;;;;23.73;12.00;;;5.00;66.30;;;-0.07;100.00;96707.63;4996533;28;20112;-52
2023/01/25 03:59:07;;;;;;;25.35;12.38;;;5.00;66.30;;;-0.10;100.00;96706.16;5006378;28;20128;-53
2023/01/25 04:01:41;;;;;;;23.38;12.10;;;5.00;66.30;;;-0.07;100.00;96715.50;5000250;28;20037;-55
2023/01/25 04:04:10;;;;;;;23.70;12.85;;;5.00;66.40;;;-0.02;100.00;96695.66;4993579;28;20033;-57
2023/01/25 04:06:39;;;;;;;21.40;12.50;;;5.00;66.40;;;-0.02;100.00;96690.44;4975388;28;20097;-55
2023/01/25 04:09:06;;;;;;;23.63;12.65;;;5.10;66.50;;;0.01;100.00;96694.50;4977324;28;20045;-54
2023/01/25 04:11:32;;;;;;;27.25;12.23;;;5.10;66.50;;;-0.04;100.00;96695.00;4996334;28;20109;-54
2023/01/25 04:14:03;;;;;;;27.38;13.55;;;5.10;66.40;;;0.00;99.88;96695.50;4971797;28;20113;-56
2023/01/25 04:16:34;;;;;;;24.50;12.93;;;5.10;66.40;;;-0.02;99.98;96700.91;4974241;28;20112;-55
2023/01/25 04:19:00;;;;;;;24.25;12.95;;;5.10;66.50;;;-0.02;100.00;96700.09;4995706;28;20032;-52
2023/01/25 04:21:29;;;;;;;23.77;12.20;;;5.10;66.40;;;-0.01;100.00;96702.53;4973620;28;20033;-57
2023/01/25 04:24:01;;;;;;;25.20;13.27;;;5.10;66.40;;;0.01;100.00;96702.38;4993649;28;20887;-56
2023/01/25 04:26:26;;;;;;;26.20;12.90;;;5.10;66.50;;;-0.01;100.00;96702.53;4990663;28;20107;-56
2023/01/25 04:28:52;;;;;;;23.45;12.75;;;5.10;66.40;;;0.04;99.97;96696.78;4971202;28;20559;-55
2023/01/25 04:31:20;;;;;;;24.20;12.77;;;5.10;66.40;;;-0.02;100.00;96698.28;4986383;28;20027;-54
2023/01/25 04:33:48;;;;;;;25.00;13.23;;;5.10;66.50;;;0.03;100.00;96694.31;4972091;28;20482;-57
2023/01/25 04:36:14;;;;;;;30.25;13.65;;;5.10;66.40;;;-0.02;100.00;96687.81;4991170;28;20033;-57
2023/01/25 04:38:43;;;;;;;25.63;13.05;;;5.10;66.40;;;0.01;100.00;96685.84;4998715;28;20033;-54
2023/01/25 04:41:12;;;;;;;24.80;13.18;;;5.10;66.40;;;-0.03;99.83;96688.00;5002163;28;20017;-54
2023/01/25 04:43:41;;;;;;;27.20;13.60;;;5.20;66.50;;;-0.01;99.82;96686.00;4990778;28;20037;-53
2023/01/25 04:46:09;;;;;;;24.02;13.48;;;5.10;66.40;;;-0.06;100.00;96680.47;4987544;28;20097;-54
2023/01/25 04:48:41;;;;;;;26.17;13.75;;;5.10;66.40;;;-0.05;99.89;96682.09;4991878;28;20029;-55
2023/01/25 04:51:08;;;;;;;26.25;13.45;;;5.10;66.50;;;-0.06;100.00;96681.28;5000656;28;20036;-51
2023/01/25 04:53:40;;;;;;;26.35;14.52;;;5.10;66.40;;;-0.03;99.63;96685.38;4976794;28;20029;-51
2023/01/25 04:56:06;;;;;;;28.20;14.03;;;5.10;66.50;;;-0.03;99.71;96678.31;4993360;28;20372;-51
2023/01/25 04:58:32;;;;;;;27.60;13.60;;;5.10;66.50;;;-0.10;99.65;96679.97;4974028;28;20116;-53
2023/01/25 05:01:06;;;;;;;23.40;11.98;;;5.10;66.50;;;-0.11;99.71;96685.41;5004325;28;20031;-54
2023/01/25 05:03:32;;;;;;;26.58;13.05;;;5.10;66.50;;;-0.18;99.97;96685.28;4991071;28;20022;-53
2023/01/25 05:06:07;;;;;;;26.02;11.52;;;5.10;66.50;;;-0.16;99.63;96674.59;4971691;28;20064;-55
2023/01/25 05:08:33;;;;;;;24.58;11.43;;;5.00;66.40;;;-0.14;99.71;96686.56;4951524;28;20815;-53
2023/01/25 05:11:02;;;;;;;23.48;11.23;;;5.00;66.40;;;-0.15;99.47;96682.31;4981039;28;20080;-54
2023/01/25 05:13:27;;;;;;;24.05;12.15;;;5.00;66.50;;;-0.14;99.39;96675.25;4975044;28;20117;-51
2023/01/25 05:15:56;;;;;;;26.13;12.82;;;5.00;66.40;;;-0.14;99.30;96677.88;4988187;28;20116;-56
2023/01/25 05:18:25;;;;;;;22.00;11.80;;;5.00;66.50;;;-0.14;99.45;96673.47;4991548;28;20049;-52
2023/01/25 05:20:55;;;;;;;23.23;11.18;;;5.00;66.50;;;-0.14;99.45;96668.22;5004113;28;20087;-55
2023/01/25 05:23:21;;;;;;;24.23;12.43;;;5.00;66.50;;;-0.12;99.31;96665.44;4983792;28;20707;-56
2023/01/25 05:28:32;;;;;;;22.02;11.55;;;5.00;66.50;;;-0.18;99.74;96671.38;5005656;28;20040;-52
2023/01/25 05:31:05;;;;;;;21.00;11.65;;;5.00;66.50;;;-0.14;99.58;96673.47;4977676;28;20021;-55
2023/01/25 05:33:39;;;;;;;24.27;12.25;;;5.00;66.60;;;-0.19;99.52;96681.00;4994709;28;20059;-53
2023/01/25 05:36:05;;;;;;;22.20;11.82;;;5.00;66.60;;;-0.19;99.31;96688.03;4969388;28;20034;-54
2023/01/25 05:38:31;;;;;;;22.45;11.60;;;5.00;66.60;;;-0.25;99.70;96677.28;5006832;28;20030;-55
2023/01/25 05:41:00;;;;;;;21.73;11.70;;;5.00;66.60;;;-0.24;99.30;96668.44;4991225;28;20032;-54
2023/01/25 05:43:26;;;;;;;24.83;12.00;;;4.90;66.60;;;-0.20;99.08;96682.00;4986266;28;20472;-54
2023/01/25 05:45:52;;;;;;;19.23;10.23;;;4.90;66.50;;;-0.26;98.69;96677.44;4989457;28;20017;-54
2023/01/25 05:48:21;;;;;;;18.75;10.82;;;4.90;66.50;;;-0.18;99.42;96668.75;4994882;28;20064;-51
2023/01/25 05:50:50;;;;;;;21.95;11.88;;;4.90;66.50;;;-0.18;98.97;96668.75;5001374;28;20025;-55
2023/01/25 05:53:28;;;;;;;20.42;11.07;;;4.90;66.50;;;-0.11;98.78;96675.72;4989192;28;20034;-54
2023/01/25 05:55:54;;;;;;;21.88;11.52;;;4.90;66.50;;;-0.18;99.16;96673.97;4986262;28;20017;-55
2023/01/25 05:58:20;;;;;;;23.58;11.20;;;5.00;66.60;;;-0.24;99.39;96670.22;4966777;28;20036;-56
2023/01/25 06:00:46;;;;;;;20.95;11.15;;;5.00;66.50;;;-0.16;99.24;96679.84;4992006;28;20357;-56
2023/01/25 06:03:12;;;;;;;23.77;12.43;;;5.00;66.50;;;-0.18;99.23;96669.56;4937643;28;234017;-51
2023/01/25 06:05:37;;;;;;;27.63;13.52;;;5.00;66.60;;;-0.18;99.55;96671.38;4990516;28;20036;-53
2023/01/25 06:08:03;;;;;;;24.20;13.00;;;5.00;66.60;;;-0.18;99.79;96673.97;4991956;28;20053;-51
2023/01/25 06:10:29;;;;;;;23.75;12.35;;;5.00;66.60;;;-0.14;99.58;96672.66;4979307;28;20102;-52
2023/01/25 06:12:59;;;;;;;23.92;11.52;;;5.00;66.60;;;-0.12;99.53;96673.31;4994851;28;20132;-54
2023/01/25 06:15:27;;;;;;;22.98;11.38;;;4.90;66.60;;;-0.15;99.13;96668.41;5003058;28;20041;-54
2023/01/25 06:17:55;;;;;;;24.50;12.35;;;4.90;66.60;;;-0.20;99.25;96665.47;5015805;28;20452;-54
2023/01/25 06:20:21;;;;;;;23.92;11.85;;;5.00;66.60;;;-0.24;99.68;96660.56;4973407;28;20025;-55
2023/01/25 06:22:56;;;;;;;22.35;11.48;;;4.90;66.50;;;-0.25;99.69;96668.59;4981238;28;20033;-51
2023/01/25 06:25:22;;;;;;;23.05;11.70;;;4.90;66.50;;;-0.19;99.62;96661.84;4985703;28;20021;-52
2023/01/25 06:27:48;;;;;;;23.48;11.77;;;4.90;66.50;;;-0.28;100.00;96663.72;5007365;28;20044;-54
2023/01/25 06:30:14;;;;;;;22.02;11.40;;;4.90;66.60;;;-0.20;100.00;96670.72;5003822;28;20013;-54
2023/01/25 06:32:40;;;;;;;23.00;11.98;;;4.90;66.60;;;-0.29;100.00;96664.69;5019260;28;20024;-53
2023/01/25 06:35:08;;;;;;;27.55;12.50;;;4.90;66.60;;;-0.20;100.00;96670.72;4984458;28;20037;-52
2023/01/25 06:37:33;;;;;;;26.63;12.73;;;4.90;66.60;;;-0.21;100.00;96662.03;4997862;28;20025;-54
2023/01/25 06:39:59;;;;;;;27.88;12.77;;;4.90;66.70;;;-0.25;100.00;96653.72;4987833;28;20176;-55
2023/01/25 06:42:28;;;;;;;22.45;11.52;;;4.90;66.70;;;-0.33;99.80;96651.13;4989278;28;20033;-53
2023/01/25 06:44:54;;;;;;;23.40;11.85;;;4.90;66.60;;;-0.37;100.00;96660.31;4989239;28;20025;-55
2023/01/25 06:47:22;;;;;;;23.20;11.77;;;4.90;66.60;;;-0.36;100.00;96654.06;4972622;28;20510;-55
2023/01/25 06:49:48;;;;;;;23.10;12.02;;;4.90;66.70;;;-0.37;100.00;96651.63;4981822;28;20784;-52
2023/01/25 06:52:14;;;;;;;20.92;11.68;;;4.90;66.70;;;-0.32;100.00;96659.78;5004884;28;20029;-53
2023/01/25 06:54:40;;;;;;;24.05;12.50;;;4.90;66.70;;;-0.31;100.00;96650.97;5006660;28;20053;-52
2023/01/25 06:57:09;;;;;;;22.23;11.70;;;4.90;66.70;;;-0.27;100.00;96650.44;4994551;28;20455;-51
2023/01/25 06:59:35;;;;;;;27.05;13.93;;;4.90;66.70;;;-0.32;100.00;96652.75;5005425;28;20040;-56
2023/01/25 07:02:04;;;;;;;21.25;11.73;;;4.90;66.70;;;-0.31;100.00;96643.09;4991265;28;20102;-51
2023/01/25 07:04:31;;;;;;;22.60;11.85;;;4.90;66.70;;;-0.32;100.00;96644.88;4992100;28;20440;-55
2023/01/25 07:07:01;;;;;;;21.08;11.57;;;4.90;66.70;;;-0.39;100.00;96637.88;4999555;28;20025;-54
2023/01/25 07:09:27;;;;;;;22.60;12.60;;;4.90;66.70;;;-0.33;100.00;96643.25;4989602;28;20040;-55
2023/01/25 07:11:53;;;;;;;25.85;12.13;;;4.90;66.70;;;-0.43;100.00;96637.41;4958240;28;20393;-51
2023/01/25 07:14:18;;;;;;;28.17;12.40;;;4.80;66.70;;;-0.44;100.00;96641.00;5007246;28;20025;-51
2023/01/25 07:16:44;;;;;;;23.98;11.90;;;4.80;66.70;;;-0.40;100.00;96639.69;4964177;28;20030;-53
2023/01/25 07:19:13;;;;;;;23.25;11.13;;;4.80;66.70;;;-0.38;100.00;96647.38;4971495;28;20032;-56
2023/01/25 07:21:42;;;;;;;24.38;11.93;;;4.80;66.70;;;-0.40;100.00;96642.31;4974526;28;20076;-54
2023/01/25 07:24:16;;;;;;;24.30;11.98;;;4.80;66.80;;;-0.35;100.00;96637.38;4988520;28;20634;-53
2023/01/25 07:26:42;;;;;;;22.67;11.43;;;4.80;66.80;;;-0.29;100.00;96641.09;4967386;28;20586;-54
2023/01/25 07:29:15;;;;;;;23.15;11.10;;;4.90;66.90;;;-0.33;100.00;96639.81;4984982;28;20132;-53
2023/01/25 07:31:42;;;;;;;26.10;12.95;;;4.90;66.80;;;-0.31;100.00;96640.47;4982649;28;20428;-53
2023/01/25 07:34:12;;;;;;;23.67;11.77;;;4.80;66.80;;;-0.34;100.00;96644.25;4990499;28;20167;-52
2023/01/25 07:36:47;;;;;;;22.02;11.88;;;4.90;66.80;;;-0.37;100.00;96639.34;5006423;28;20029;-51
2023/01/25 07:39:13;;;;;;;19.83;11.68;;;4.90;66.80;;;-0.32;100.00;96642.25;5006984;28;20033;-51
2023/01/25 07:41:45;;;;;;;21.38;10.90;;;4.90;66.80;;;-0.33;100.00;96642.44;4972872;28;20495;-51
2023/01/25 07:44:11;;;;;;;22.30;11.30;;;4.90;66.80;;;-0.35;100.00;96637.38;4989497;28;20033;-53
2023/01/25 07:46:46;;;;;;;23.70;11.50;;;4.90;66.70;;;-0.30;100.00;96639.50;4988876;28;20412;-51
2023/01/25 07:49:18;;;;;;;24.45;12.15;;;4.90;66.70;;;-0.34;100.00;96644.25;4994036;28;20057;-53
2023/01/25 07:51:49;;;;;;;21.75;11.40;;;4.90;66.70;;;-0.36;100.00;96640.97;4997970;28;20491;-53
2023/01/25 07:54:17;;;;;;;23.40;11.48;;;5.00;66.80;;;-0.30;99.99;96645.53;5002276;28;20044;-51
2023/01/25 07:56:43;;;;;;;21.25;12.00;;;4.90;66.70;;;-0.27;99.81;96644.38;4971220;28;20021;-55
2023/01/25 07:59:15;;;;;;;22.00;11.65;;;5.00;66.70;;;-0.28;100.00;96642.75;4971123;28;20032;-51
2023/01/25 08:01:41;;;;;;;23.73;11.60;;;5.00;66.70;;;-0.27;99.42;96642.56;4988231;28;20038;-51
2023/01/25 08:04:08;;;;;;;24.05;11.63;;;5.00;66.70;;;-0.26;99.81;96643.38;4971055;28;20132;-53
2023/01/25 08:06:40;;;;;;;23.80;12.55;;;5.00;66.70;;;-0.30;99.81;96642.91;4988923;28;20104;-52
2023/01/25 08:09:14;;;;;;;22.40;11.27;;;5.00;66.60;;;-0.31;99.96;96636.06;5019072;23;20049;-45
2023/01/25 08:11:41;;;;;;;24.60;12.18;;;5.00;66.60;;;-0.30;100.00;96637.69;4980943;28;20120;-46
2023/01/25 08:14:13;;;;;;;24.50;12.02;;;5.00;66.60;;;-0.25;99.79;96640.63;4977211;28;20014;-47
2023/01/25 08:16:47;;;;;;;22.50;12.07;;;5.00;66.60;;;-0.18;100.00;96638.13;4999537;28;20038;-46
2023/01/25 08:19:18;;;;;;;23.00;12.02;;;5.00;66.60;;;-0.19;99.77;96639.09;5002394;28;20121;-45
2023/01/25 08:21:45;;;;;;;26.10;12.38;;;5.10;66.70;;;-0.26;100.00;96638.97;4987593;28;20034;-45
2023/01/25 08:24:11;;;;;;;29.05;13.60;;;5.10;66.60;;;-0.22;100.00;96636.81;4973471;28;20030;-47
2023/01/25 08:26:37;;;;;;;25.33;13.45;;;5.10;66.50;;;-0.17;100.00;96629.28;4980243;28;20064;-52
2023/01/25 08:29:26;;;;;;;31.48;14.48;;;5.10;66.60;;;-0.10;100.00;96637.25;4986994;28;20034;-45
2023/01/25 08:31:53;;;;;;;24.35;12.07;;;5.10;66.50;;;-0.11;99.61;96631.22;4973068;28;20025;-45
2023/01/25 08:34:19;;;;;;;27.80;12.68;;;5.10;66.50;;;-0.09;99.54;96633.66;4972771;28;20030;-45
2023/01/25 08:36:48;;;;;;;25.13;12.15;;;5.20;66.50;;;-0.06;99.74;96635.94;4990840;28;20495;-49
2023/01/25 08:39:16;;;;;;;24.52;12.55;;;5.20;66.50;;;-0.12;99.65;96629.59;4986798;28;20089;-48
2023/01/25 08:41:48;;;;;;;25.45;12.52;;;5.20;66.50;;;-0.17;100.00;96625.84;4971584;28;20069;-45
2023/01/25 08:44:22;;;;;;;22.20;12.00;;;5.20;66.40;;;-0.21;100.00;96638.47;4973252;28;20033;-46
2023/01/25 08:46:52;;;;;;;27.42;12.15;;;5.20;66.40;;;-0.19;100.00;96625.19;4972083;28;20117;-49
2023/01/25 08:49:18;;;;;;;21.00;11.80;;;5.20;66.40;;;-0.19;100.00;96620.75;4973645;28;20488;-51
2023/01/25 08:51:49;;;;;;;24.77;11.77;;;5.20;66.40;;;-0.22;100.00;96628.16;4973499;28;20030;-46
2023/01/25 08:54:18;;;;;;;24.17;11.68;;;5.20;66.40;;;-0.25;100.00;96614.44;4992479;28;20042;-46
2023/01/25 08:56:53;;;;;;;25.17;12.27;;;5.20;66.30;;;-0.28;100.00;96611.34;4971358;28;20122;-46
2023/01/25 08:59:28;;;;;;;22.52;12.20;;;5.20;66.30;;;-0.32;99.85;96608.22;4955048;28;20022;-49
2023/01/25 09:01:54;;;;;;;21.08;11.38;;;5.20;66.20;;;-0.28;99.33;96598.25;4971657;28;20038;-50
2023/01/25 09:04:20;;;;;;;23.58;11.50;;;5.20;66.20;;;-0.28;99.22;96587.78;4973855;28;20029;-52
2023/01/25 09:06:45;;;;;;;21.65;11.15;;;5.20;66.10;;;-0.28;99.58;96593.81;4983215;28;20042;-50
2023/01/25 09:09:12;;;;;;;26.17;11.70;;;5.20;66.10;;;-0.20;99.68;96597.38;4970216;28;20042;-46
2023/01/25 09:11:39;;;;;;;21.90;10.88;;;5.30;66.10;;;-0.26;99.46;96581.34;4977560;28;20026;-47
2023/01/25 09:14:08;;;;;;;21.13;11.00;;;5.30;66.00;;;-0.15;99.34;96595.06;4971421;28;20381;-47
2023/01/25 09:16:36;;;;;;;23.58;11.60;;;5.30;66.00;;;-0.09;99.14;96586.53;4971419;28;20022;-53
2023/01/25 09:19:04;;;;;;;21.58;11.00;;;5.40;66.10;;;-0.02;98.93;96587.44;4974951;28;20388;-52
2023/01/25 09:21:32;;;;;;;21.75;11.27;;;5.40;66.00;;;0.03;98.61;96582.50;4986347;28;20416;-52
2023/01/25 09:23:59;;;;;;;20.85;10.25;;;5.40;66.00;;;-0.03;97.88;96584.03;4970824;28;20030;-45
2023/01/25 09:26:27;;;;;;;21.83;11.32;;;5.40;66.00;;;0.05;98.26;96585.75;4987279;28;20516;-49
2023/01/25 09:29:03;;;;;;;19.70;10.35;;;5.50;66.10;;;0.04;97.74;96588.56;4952449;28;20046;-54
2023/01/25 09:31:29;;;;;;;17.50;10.00;;;5.50;66.10;;;0.02;97.40;96585.28;4990324;28;20029;-46
2023/01/25 09:34:01;;;;;;;21.42;10.85;;;5.50;66.00;;;0.10;97.85;96580.81;4965121;28;20117;-51
2023/01/25 09:36:27;;;;;;;20.02;10.60;;;5.50;66.50;;;0.04;97.62;96578.91;4971702;28;20353;-47
2023/01/25 09:38:55;;;;;;;19.80;10.70;;;5.60;65.90;;;-0.06;97.71;96580.94;4968730;28;20065;-46
2023/01/25 09:42:54;;;;;;;20.30;11.02;;;5.60;65.80;;;-0.07;98.47;96576.66;4974608;28;20026;-49
2023/01/25 09:45:35;;;;;;;21.15;10.15;;;5.60;65.60;;;-0.09;97.45;96582.09;4948076;28;20035;-53
2023/01/25 09:48:55;;;;;;;17.95;9.48;;;5.50;65.70;;;0.03;97.70;96574.63;4971158;28;20117;-46
2023/01/25 09:51:54;;;;;;;20.08;9.98;;;5.50;65.60;;;0.11;97.36;96571.97;4966115;28;20468;-46
2023/01/25 09:54:22;;;;;;;21.38;10.35;;;5.60;65.70;;;0.08;96.83;96571.50;4986370;28;20029;-54
2023/01/25 09:56:51;;;;;;;18.58;9.77;;;5.60;65.70;;;0.14;96.96;96566.38;4973107;28;20074;-52
2023/01/25 09:59:29;;;;;;;18.50;10.27;;;5.60;65.70;;;0.20;96.71;96562.25;4986407;28;20392;-48
2023/01/25 10:02:29;;;;;;;18.05;9.68;;;5.70;65.60;;;0.10;96.66;96551.19;4976985;28;20500;-46
2023/01/25 10:05:13;;;;;;;18.92;9.63;;;5.70;65.50;;;0.03;97.34;96564.16;4958476;28;20025;-47
2023/01/25 10:08:30;;;;;;;17.67;9.57;;;5.70;65.40;;;0.16;96.76;96566.22;4951313;28;20054;-48
2023/01/25 10:11:32;;;;;;;19.38;10.10;;;5.70;65.40;;;0.21;96.22;96559.44;4966708;28;20077;-52
2023/01/25 10:13:59;;;;;;;19.40;9.52;;;5.70;65.40;;;0.22;95.99;96555.03;4950048;28;20034;-46
2023/01/25 10:16:46;;;;;;;18.40;9.43;;;5.70;65.40;;;0.18;95.97;96558.97;4967732;28;20102;-47
2023/01/25 10:19:45;;;;;;;20.70;9.60;;;5.80;65.20;;;0.13;95.81;96559.50;4968422;28;20029;-49
2023/01/25 10:22:33;;;;;;;16.60;9.15;;;5.80;65.10;;;0.05;95.89;96554.31;4962508;28;20117;-46
2023/01/25 10:25:32;;;;;;;16.75;9.00;;;5.80;65.00;;;0.17;96.16;96549.50;4982342;28;20022;-50
2023/01/25 10:28:34;;;;;;;17.00;9.80;;;5.80;65.00;;;0.11;96.24;96548.38;4963204;28;20038;-46
2023/01/25 10:31:18;;;;;;;16.30;9.07;;;5.80;65.00;;;0.10;96.17;96544.13;4964930;28;20389;-52
2023/01/25 10:33:48;;;;;;;17.67;9.88;;;5.80;65.00;;;0.15;95.84;96546.22;4964970;28;20475;-47
2023/01/25 10:36:29;;;;;;;16.73;9.40;;;5.80;65.10;;;0.19;95.65;96548.34;4982965;28;20033;-46
2023/01/25 10:39:00;;;;;;;20.05;10.13;;;5.80;65.00;;;0.21;95.93;96548.13;4964687;28;20399;-48